CSL Niagara — VCGJ — position and weather

sailwx.info

Track history (hours):
 
Tides and Currents Weather Stations Pressure Air Temp Water Temp Dewpoint Dewpoint Depression Visibility Wind Speed Wind Dir Waves Ship Positions

CSL Niagara

ex J. W. McGiffin

Last reported at 2015-May-04 02:33 UTC. Time now 2015-May-04 02:58 UTC.
Position N 45°03' W 086°15'.

Length 225 m; draft 7 m.

Type: Cargo ship. MMSI: 316029000.

Date/timePositionNaut miles runAvg speedWind from/ knotsBaromVisibWave heightAir tempDewpointWater temp
2015-May-04 02:33N 45°03' W 086°15'18 0.4
2015-May-02 07:22N 44°48' W 086°28'1012.1
2015-May-02 06:33N 44°57' W 086°25'1212.1
2015-May-02 05:33N 45°09' W 086°20'1212.3
2015-May-02 04:34N 45°20' W 086°15'1212.2
2015-May-02 03:34N 45°32' W 086°10'1211.6
2015-May-02 02:33N 45°43' W 086°03'1212.4
2015-May-02 01:34N 45°48' W 085°47'1212.2
2015-May-02 00:33N 45°54' W 085°32'1212.2
2015-May-01 23:34N 45°52' W 085°14'1212.3
2015-May-01 22:34N 45°50' W 084°57'1212.0
2015-May-01 21:34N 45°48' W 084°40'1211.7
2015-May-01 20:34N 45°42' W 084°26'1211.6
2015-May-01 19:33N 45°39' W 084°10'  
2015-Apr-24 09:28N 45°58' W 083°54'26 8.9
2015-Apr-24 06:32N 46°21' W 084°13'  
Track history (hours):
 
Tides and Currents Weather Stations Pressure Air Temp Water Temp Dewpoint Dewpoint Depression Visibility Wind Speed Wind Dir Waves Ship Positions

CSL Niagara

ex J. W. McGiffin

Last reported at 2015-May-04 02:33 UTC. Time now 2015-May-04 02:58 UTC.
Position N 45°03' W 086°15'.

Length 225 m; draft 7 m.

Type: Cargo ship. MMSI: 316029000.

Date/timePositionNaut miles runAvg speedWind from/ knotsBaromVisibWave heightAir tempDewpointWater temp
2015-May-04 02:33N 45°03' W 086°15'18 0.4
2015-May-02 07:22N 44°48' W 086°28'1012.1
2015-May-02 06:33N 44°57' W 086°25'1212.1
2015-May-02 05:33N 45°09' W 086°20'1212.3
2015-May-02 04:34N 45°20' W 086°15'1212.2
2015-May-02 03:34N 45°32' W 086°10'1211.6
2015-May-02 02:33N 45°43' W 086°03'1212.4
2015-May-02 01:34N 45°48' W 085°47'1212.2
2015-May-02 00:33N 45°54' W 085°32'1212.2
2015-May-01 23:34N 45°52' W 085°14'1212.3
2015-May-01 22:34N 45°50' W 084°57'1212.0
2015-May-01 21:34N 45°48' W 084°40'1211.7
2015-May-01 20:34N 45°42' W 084°26'1211.6
2015-May-01 19:33N 45°39' W 084°10'  
2015-Apr-24 09:28N 45°58' W 083°54'26 8.9
2015-Apr-24 06:32N 46°21' W 084°13'  

Dump ship's entire track history